createdAt,value
2023-05-09T00:02:04.575Z,11.14
2023-05-09T00:04:36.147Z,11.28
2023-05-09T00:07:06.628Z,11.48
2023-05-09T00:09:37.117Z,11.69
2023-05-09T00:12:10.748Z,11.92
2023-05-09T00:14:43.512Z,11.87
2023-05-09T00:17:15.341Z,11.75
2023-05-09T00:19:46.203Z,11.73
2023-05-09T00:22:16.696Z,11.71
2023-05-09T00:24:47.348Z,11.71
2023-05-09T00:27:18.664Z,11.75
2023-05-09T00:29:50.822Z,12.02
2023-05-09T00:32:21.373Z,12.23
2023-05-09T00:34:51.812Z,12.37
2023-05-09T00:37:22.293Z,12.54
2023-05-09T00:39:52.856Z,12.76
2023-05-09T00:42:23.290Z,12.79
2023-05-09T00:44:55.564Z,12.65
2023-05-09T00:47:27.002Z,12.38
2023-05-09T00:50:00.852Z,12.33
2023-05-09T00:52:31.528Z,12.27
2023-05-09T00:55:02.804Z,11.69
2023-05-09T00:57:33.387Z,12.21
2023-05-09T01:00:06.283Z,12.02
2023-05-09T01:02:36.877Z,11.60
2023-05-09T01:05:07.926Z,11.42
2023-05-09T01:07:46.371Z,11.14
2023-05-09T01:10:24.375Z,10.96
2023-05-09T01:13:02.161Z,10.79
2023-05-09T01:15:39.229Z,10.74
2023-05-09T01:18:15.466Z,10.60
2023-05-09T01:20:49.108Z,10.43
2023-05-09T01:23:38.322Z,10.28
2023-05-09T01:26:15.589Z,9.96
2023-05-09T01:29:08.721Z,9.97
2023-05-09T01:31:44.011Z,9.66
2023-05-09T01:34:17.644Z,9.48
2023-05-09T01:36:52.882Z,9.33
2023-05-09T01:39:24.975Z,9.05
2023-05-09T01:41:57.889Z,9.16
2023-05-09T01:44:30.524Z,9.32
2023-05-09T01:47:03.436Z,9.40
2023-05-09T01:49:38.941Z,9.43
2023-05-09T01:52:16.136Z,9.32
2023-05-09T01:54:49.874Z,9.26
2023-05-09T01:57:23.350Z,9.06
2023-05-09T01:59:55.169Z,9.01
2023-05-09T02:02:28.684Z,8.90
2023-05-09T02:05:00.427Z,8.97
2023-05-09T02:07:32.475Z,9.04
2023-05-09T02:10:05.720Z,9.09
2023-05-09T02:12:36.486Z,9.35
2023-05-09T02:15:07.870Z,9.45
2023-05-09T02:17:40.000Z,9.53
2023-05-09T02:20:12.331Z,9.61
2023-05-09T02:22:44.789Z,9.62
2023-05-09T02:25:17.613Z,9.52
2023-05-09T02:27:49.283Z,9.52
2023-05-09T02:30:25.220Z,9.60
2023-05-09T02:33:02.279Z,9.62
2023-05-09T02:35:33.192Z,9.45
2023-05-09T02:38:03.757Z,9.13
2023-05-09T02:40:34.395Z,9.17
2023-05-09T02:43:05.063Z,8.38
2023-05-09T02:45:35.535Z,8.84
2023-05-09T02:48:09.172Z,8.32
2023-05-09T02:50:42.725Z,8.58
2023-05-09T02:53:13.289Z,8.48
2023-05-09T02:55:43.740Z,8.51
2023-05-09T02:58:15.094Z,8.47
2023-05-09T03:00:46.107Z,8.22
2023-05-09T03:03:18.821Z,8.30
2023-05-09T03:05:49.388Z,8.33
2023-05-09T03:08:19.946Z,8.31
2023-05-09T03:10:50.334Z,8.36
2023-05-09T03:13:20.914Z,8.48
2023-05-09T03:15:51.585Z,8.60
2023-05-09T03:18:23.863Z,8.60
2023-05-09T03:20:54.377Z,8.59
2023-05-09T03:23:24.985Z,8.50
2023-05-09T03:25:57.382Z,8.55
2023-05-09T03:28:27.848Z,8.56
2023-05-09T03:30:58.849Z,8.51
2023-05-09T03:33:31.108Z,8.46
2023-05-09T03:36:01.533Z,8.53
2023-05-09T03:38:32.106Z,8.53
2023-05-09T03:41:03.176Z,8.59
2023-05-09T03:43:33.603Z,8.59
2023-05-09T03:46:04.826Z,8.53
2023-05-09T03:48:36.839Z,8.54
2023-05-09T03:51:07.857Z,8.52
2023-05-09T03:53:38.290Z,8.46
2023-05-09T03:56:09.243Z,8.47
2023-05-09T03:58:39.675Z,8.43
2023-05-09T04:01:10.139Z,8.45
2023-05-09T04:03:42.419Z,8.47
2023-05-09T04:06:12.967Z,8.47
2023-05-09T04:08:43.493Z,8.52
2023-05-09T04:11:14.002Z,8.54
2023-05-09T04:13:44.414Z,8.52
2023-05-09T04:16:14.917Z,8.54
2023-05-09T04:18:46.995Z,8.55
2023-05-09T04:21:17.529Z,8.54
2023-05-09T04:23:47.950Z,8.64
2023-05-09T04:26:20.414Z,8.79
2023-05-09T04:28:52.930Z,8.78
2023-05-09T04:31:25.128Z,8.84
2023-05-09T04:33:59.123Z,8.87
2023-05-09T04:36:30.139Z,8.88
2023-05-09T04:39:00.607Z,8.80
2023-05-09T04:41:31.099Z,8.82
2023-05-09T04:44:01.678Z,8.77
2023-05-09T04:46:32.203Z,8.78
2023-05-09T04:49:04.403Z,8.79
2023-05-09T04:51:34.867Z,8.75
2023-05-09T04:54:05.889Z,8.73
2023-05-09T04:56:36.759Z,8.70
2023-05-09T04:59:07.293Z,8.69
2023-05-09T05:01:37.907Z,8.62
2023-05-09T05:04:10.399Z,8.10
2023-05-09T05:06:40.834Z,7.29
2023-05-09T05:09:11.590Z,6.48
2023-05-09T05:11:50.105Z,6.26
2023-05-09T05:14:27.731Z,5.95
2023-05-09T05:16:58.228Z,5.79
2023-05-09T05:19:30.358Z,5.67
2023-05-09T05:22:01.418Z,5.67
2023-05-09T05:24:32.011Z,5.68
2023-05-09T05:27:02.550Z,5.68
2023-05-09T05:29:34.139Z,5.55
2023-05-09T05:32:04.635Z,5.49
2023-05-09T05:34:36.684Z,5.51
2023-05-09T05:37:07.214Z,5.67
2023-05-09T05:39:37.558Z,5.77
2023-05-09T05:42:08.137Z,5.78
2023-05-09T05:44:38.595Z,5.78
2023-05-09T05:47:09.178Z,5.80
2023-05-09T05:49:41.298Z,5.83
2023-05-09T05:52:11.778Z,5.83
2023-05-09T05:54:42.365Z,5.78
2023-05-09T05:57:12.710Z,5.81
2023-05-09T05:59:43.117Z,5.80
2023-05-09T06:02:13.533Z,5.49
2023-05-09T06:04:45.560Z,5.83
2023-05-09T06:07:16.593Z,5.72
2023-05-09T06:09:47.065Z,5.66
2023-05-09T06:12:18.614Z,5.58
2023-05-09T06:14:49.309Z,5.57
2023-05-09T06:17:19.847Z,5.64
2023-05-09T06:19:52.035Z,5.61
2023-05-09T06:22:22.439Z,5.59
2023-05-09T06:24:52.924Z,5.50
2023-05-09T06:27:23.483Z,5.42
2023-05-09T06:29:53.973Z,5.40
2023-05-09T06:32:25.824Z,5.35
2023-05-09T06:34:57.899Z,5.25
2023-05-09T06:37:28.347Z,5.12
2023-05-09T06:39:58.773Z,5.17
2023-05-09T06:42:29.421Z,5.12
2023-05-09T06:44:59.873Z,5.07
2023-05-09T06:47:30.335Z,5.09
2023-05-09T06:50:02.353Z,5.09
2023-05-09T06:52:32.742Z,5.08
2023-05-09T06:55:03.219Z,5.07
2023-05-09T06:57:33.777Z,5.23
2023-05-09T07:00:05.739Z,5.44
2023-05-09T07:02:36.415Z,5.66
2023-05-09T07:05:09.391Z,5.53
2023-05-09T07:07:39.963Z,5.49
2023-05-09T07:10:13.245Z,5.30
2023-05-09T07:12:44.731Z,4.99
2023-05-09T07:15:22.775Z,5.11
2023-05-09T07:17:59.482Z,5.13
2023-05-09T07:20:32.004Z,5.14
2023-05-09T07:23:04.368Z,5.23
2023-05-09T07:25:34.964Z,5.20
2023-05-09T07:28:05.471Z,5.16
2023-05-09T07:30:35.975Z,5.10
2023-05-09T07:33:07.531Z,5.08
2023-05-09T07:35:39.813Z,4.99
2023-05-09T07:38:10.295Z,5.28
2023-05-09T07:40:40.835Z,5.19
2023-05-09T07:43:11.336Z,5.09
2023-05-09T07:45:41.856Z,5.10
2023-05-09T07:48:12.422Z,5.03
2023-05-09T07:50:44.952Z,4.84
2023-05-09T07:53:15.557Z,4.88
2023-05-09T07:55:48.471Z,4.90
2023-05-09T07:58:19.605Z,4.90
2023-05-09T08:00:50.209Z,4.87
2023-05-09T08:03:21.750Z,4.85
2023-05-09T08:05:57.757Z,4.92
2023-05-09T08:08:29.188Z,4.95
2023-05-09T08:10:59.717Z,4.91
2023-05-09T08:13:30.317Z,4.99
2023-05-09T08:16:00.955Z,5.02
2023-05-09T08:18:31.617Z,5.05
2023-05-09T08:21:03.760Z,4.96
2023-05-09T08:23:34.317Z,4.89
2023-05-09T08:26:04.898Z,4.91
2023-05-09T08:28:35.222Z,4.88
2023-05-09T08:31:05.746Z,4.91
2023-05-09T08:33:41.720Z,4.91
2023-05-09T08:36:14.408Z,4.80
2023-05-09T08:38:44.901Z,4.70
2023-05-09T08:41:15.483Z,4.62
2023-05-09T08:43:46.775Z,4.59
2023-05-09T08:46:19.072Z,4.49
2023-05-09T08:48:49.919Z,4.46
2023-05-09T08:51:22.667Z,4.35
2023-05-09T08:53:53.857Z,4.30
2023-05-09T08:56:24.398Z,4.26
2023-05-09T08:58:55.804Z,4.21
2023-05-09T09:01:29.079Z,4.05
2023-05-09T09:03:59.890Z,4.12
2023-05-09T09:06:32.974Z,4.02
2023-05-09T09:09:06.929Z,4.03
2023-05-09T09:11:38.492Z,4.10
2023-05-09T09:14:14.527Z,3.96
2023-05-09T09:16:50.861Z,4.00
2023-05-09T09:19:24.767Z,3.85
2023-05-09T09:22:01.843Z,3.80
2023-05-09T09:24:33.412Z,3.67
2023-05-09T09:27:22.367Z,3.48
2023-05-09T09:29:58.490Z,3.38
2023-05-09T09:32:36.471Z,3.30
2023-05-09T09:35:11.711Z,3.29
2023-05-09T09:37:48.071Z,3.03
2023-05-09T09:40:22.433Z,3.24
2023-05-09T09:42:55.984Z,3.12
2023-05-09T09:45:26.712Z,3.11
2023-05-09T09:47:57.369Z,3.12
2023-05-09T09:50:28.360Z,3.08
2023-05-09T09:53:01.995Z,3.02
2023-05-09T09:55:32.834Z,2.94
2023-05-09T09:58:06.533Z,2.91
2023-05-09T10:00:39.266Z,2.86
2023-05-09T10:03:17.152Z,2.79
2023-05-09T10:05:54.586Z,2.70
2023-05-09T10:08:33.122Z,2.64
2023-05-09T10:11:04.864Z,2.64
2023-05-09T10:13:39.329Z,2.34
2023-05-09T10:16:14.292Z,2.54
2023-05-09T10:18:45.982Z,2.43
2023-05-09T10:21:18.634Z,2.43
2023-05-09T10:24:00.054Z,2.37
2023-05-09T10:26:42.545Z,2.50
2023-05-09T10:29:15.307Z,2.37
2023-05-09T10:31:50.460Z,2.54
2023-05-09T10:34:27.939Z,2.50
2023-05-09T10:36:58.816Z,2.41
2023-05-09T10:39:31.589Z,2.35
2023-05-09T10:42:09.537Z,2.36
2023-05-09T10:44:42.603Z,2.26
2023-05-09T10:47:14.125Z,2.23
2023-05-09T10:49:55.328Z,2.23
2023-05-09T10:52:34.334Z,2.24
2023-05-09T10:55:12.449Z,2.20
2023-05-09T10:57:55.492Z,2.09
2023-05-09T11:00:28.454Z,2.01
2023-05-09T11:03:10.411Z,1.98
2023-05-09T11:05:43.175Z,1.70
2023-05-09T11:08:29.769Z,1.96
2023-05-09T11:11:09.590Z,1.51
2023-05-09T11:13:40.876Z,2.00
2023-05-09T11:16:14.988Z,2.04
2023-05-09T11:18:58.744Z,2.04
2023-05-09T11:21:29.951Z,2.04
2023-05-09T11:24:00.470Z,2.04
2023-05-09T11:26:37.249Z,2.03
2023-05-09T11:29:10.808Z,1.97
2023-05-09T11:32:10.531Z,1.98
2023-05-09T11:34:40.537Z,2.03
2023-05-09T11:37:13.505Z,1.98
2023-05-09T11:40:00.607Z,1.87
2023-05-09T11:42:36.157Z,1.79
2023-05-09T11:45:08.285Z,1.84
2023-05-09T11:47:41.476Z,1.38
2023-05-09T11:50:17.970Z,1.62
2023-05-09T11:52:49.390Z,1.83
2023-05-09T11:55:23.243Z,1.25
2023-05-09T11:57:57.136Z,1.76
2023-05-09T12:00:28.932Z,1.73
2023-05-09T12:03:00.506Z,1.53
2023-05-09T12:05:31.741Z,1.69
2023-05-09T12:08:06.892Z,1.68
2023-05-09T12:10:40.814Z,1.63
2023-05-09T12:13:14.036Z,1.70
2023-05-09T12:15:44.800Z,1.70
2023-05-09T12:18:15.847Z,1.67
2023-05-09T12:20:48.547Z,1.70
2023-05-09T12:23:19.453Z,1.56
2023-05-09T12:25:56.119Z,1.37
2023-05-09T12:28:30.006Z,1.56
2023-05-09T12:31:01.324Z,1.43
2023-05-09T12:33:32.714Z,0.82
2023-05-09T12:36:08.403Z,1.45
2023-05-09T12:38:39.141Z,1.47
2023-05-09T12:41:22.454Z,1.37
2023-05-09T12:44:06.022Z,1.44
2023-05-09T12:46:37.637Z,1.11
2023-05-09T12:49:08.401Z,1.42
2023-05-09T12:51:40.265Z,1.45
2023-05-09T12:54:12.189Z,1.45
2023-05-09T12:56:42.960Z,1.43
2023-05-09T12:59:22.984Z,1.47
2023-05-09T13:02:00.811Z,1.48
2023-05-09T13:04:34.685Z,1.39
2023-05-09T13:07:11.510Z,1.26
2023-05-09T13:09:59.273Z,1.47
2023-05-09T13:12:29.884Z,1.44
2023-05-09T13:15:02.222Z,1.31
2023-05-09T13:17:32.892Z,1.54
2023-05-09T13:20:04.117Z,1.49
2023-05-09T13:22:35.129Z,0.94
2023-05-09T13:25:06.190Z,1.57
2023-05-09T13:27:40.127Z,1.59
2023-05-09T13:30:17.367Z,1.59
2023-05-09T13:32:50.535Z,1.75
2023-05-09T13:35:21.602Z,1.81
2023-05-09T13:37:52.448Z,1.77
2023-05-09T13:40:23.312Z,1.48
2023-05-09T13:42:56.560Z,1.66
2023-05-09T13:45:28.764Z,1.67
2023-05-09T13:47:59.467Z,1.68
2023-05-09T13:50:30.150Z,1.69
2023-05-09T13:53:01.180Z,1.72
2023-05-09T13:55:31.902Z,1.68
2023-05-09T13:58:02.638Z,1.56
2023-05-09T14:00:37.806Z,1.62
2023-05-09T14:03:08.530Z,1.65
2023-05-09T14:05:39.517Z,1.60
2023-05-09T14:08:10.208Z,1.62
2023-05-09T14:10:40.824Z,1.66
2023-05-09T14:13:11.966Z,1.64
2023-05-09T14:15:44.409Z,1.64
2023-05-09T14:18:20.766Z,1.65
2023-05-09T14:20:51.745Z,1.63
2023-05-09T14:23:26.137Z,1.61
2023-05-09T14:25:56.716Z,1.55
2023-05-09T14:28:27.286Z,1.63
2023-05-09T14:31:02.529Z,1.66
2023-05-09T14:33:33.240Z,1.66
2023-05-09T14:36:03.875Z,1.54
2023-05-09T14:38:34.514Z,1.53
2023-05-09T14:41:05.240Z,1.58
2023-05-09T14:43:38.687Z,1.60
2023-05-09T14:46:10.997Z,1.57
2023-05-09T14:48:44.341Z,1.64
2023-05-09T14:51:15.119Z,1.61
2023-05-09T14:53:48.116Z,1.62
2023-05-09T14:56:19.740Z,1.63
2023-05-09T14:58:52.571Z,1.61
2023-05-09T15:01:25.034Z,1.42
2023-05-09T15:03:56.578Z,1.37
2023-05-09T15:06:31.904Z,1.60
2023-05-09T15:09:02.545Z,1.63
2023-05-09T15:11:47.053Z,1.63
2023-05-09T15:14:19.638Z,1.55
2023-05-09T15:16:52.545Z,1.56
2023-05-09T15:19:23.470Z,1.52
2023-05-09T15:21:54.174Z,1.51
2023-05-09T15:24:25.603Z,1.50
2023-05-09T15:27:03.270Z,1.39
2023-05-09T15:29:33.770Z,1.47
2023-05-09T15:32:10.929Z,1.49
2023-05-09T15:34:44.260Z,1.50
2023-05-09T15:37:15.338Z,1.49
2023-05-09T15:39:49.026Z,1.37
2023-05-09T15:42:20.376Z,1.41
2023-05-09T15:44:50.999Z,1.40
2023-05-09T15:47:26.009Z,1.39
2023-05-09T15:49:58.765Z,1.33
2023-05-09T15:52:31.167Z,1.42
2023-05-09T15:55:04.342Z,1.35
2023-05-09T15:57:37.841Z,1.38
2023-05-09T16:00:12.163Z,1.34
2023-05-09T16:02:50.050Z,1.31
2023-05-09T16:05:23.616Z,1.29
2023-05-09T16:07:59.817Z,1.41
2023-05-09T16:10:30.433Z,1.42
2023-05-09T16:13:01.048Z,1.47
2023-05-09T16:15:31.690Z,1.46
2023-05-09T16:18:08.221Z,1.43
2023-05-09T16:20:39.008Z,1.16
2023-05-09T16:23:13.148Z,1.43
2023-05-09T16:25:44.061Z,1.27
2023-05-09T16:28:14.633Z,1.44
2023-05-09T16:30:48.048Z,1.48
2023-05-09T16:33:23.209Z,1.35
2023-05-09T16:35:53.803Z,1.43
2023-05-09T16:38:26.629Z,1.39
2023-05-09T16:41:00.421Z,1.05
2023-05-09T16:43:33.827Z,1.31
2023-05-09T16:46:10.122Z,1.29
2023-05-09T16:48:46.425Z,1.35
2023-05-09T16:51:17.084Z,1.38
2023-05-09T16:53:47.680Z,1.42
2023-05-09T16:56:18.295Z,1.39
2023-05-09T16:58:52.535Z,1.39
2023-05-09T17:01:27.226Z,1.42
2023-05-09T17:03:59.846Z,0.81
2023-05-09T17:06:30.504Z,1.39
2023-05-09T17:09:04.647Z,1.36
2023-05-09T17:11:35.213Z,1.47
2023-05-09T17:14:06.154Z,1.48
2023-05-09T17:16:38.200Z,1.47
2023-05-09T17:19:12.793Z,1.19
2023-05-09T17:21:44.115Z,1.50
2023-05-09T17:24:14.741Z,1.37
2023-05-09T17:26:45.274Z,1.38
2023-05-09T17:29:15.777Z,1.38
2023-05-09T17:31:51.616Z,1.37
2023-05-09T17:34:27.241Z,1.35
2023-05-09T17:37:02.855Z,1.16
2023-05-09T17:39:36.336Z,1.42
2023-05-09T17:42:10.967Z,1.33
2023-05-09T17:44:45.167Z,1.32
2023-05-09T17:47:16.098Z,1.05
2023-05-09T17:49:49.833Z,1.47
2023-05-09T17:52:20.826Z,1.44
2023-05-09T17:54:53.012Z,1.37
2023-05-09T17:57:24.546Z,1.36
2023-05-09T17:59:55.008Z,1.33
2023-05-09T18:02:28.293Z,1.18
2023-05-09T18:05:03.073Z,1.27
2023-05-09T18:07:35.421Z,1.04
2023-05-09T18:10:06.075Z,1.28
2023-05-09T18:12:39.271Z,1.24
2023-05-09T18:15:11.398Z,1.19
2023-05-09T18:17:42.008Z,1.16
2023-05-09T18:20:15.895Z,1.13
2023-05-09T18:22:49.306Z,1.21
2023-05-09T18:25:22.141Z,0.80
2023-05-09T18:27:52.827Z,1.24
2023-05-09T18:30:25.921Z,1.23
2023-05-09T18:33:00.982Z,1.27
2023-05-09T18:35:33.508Z,1.29
2023-05-09T18:38:07.009Z,1.31
2023-05-09T18:40:39.214Z,1.20
2023-05-09T18:43:14.552Z,1.17
2023-05-09T18:45:48.795Z,0.95
2023-05-09T18:48:19.371Z,1.21
2023-05-09T18:50:55.170Z,1.06
2023-05-09T18:53:29.794Z,0.95
2023-05-09T18:56:02.683Z,1.17
2023-05-09T18:58:33.324Z,1.17
2023-05-09T19:01:03.855Z,1.25
2023-05-09T19:03:34.472Z,1.27
2023-05-09T19:06:11.324Z,1.13
2023-05-09T19:08:42.079Z,1.21
2023-05-09T19:11:13.685Z,1.18
2023-05-09T19:13:49.343Z,1.14
2023-05-09T19:16:22.426Z,0.89
2023-05-09T19:18:53.036Z,1.15
2023-05-09T19:21:25.217Z,1.15
2023-05-09T19:23:55.804Z,1.06
2023-05-09T19:26:26.515Z,1.09
2023-05-09T19:28:57.037Z,1.17
2023-05-09T19:31:27.623Z,1.14
2023-05-09T19:33:58.240Z,1.05
2023-05-09T19:36:30.416Z,1.11
2023-05-09T19:39:01.342Z,1.21
2023-05-09T19:41:31.793Z,1.25
2023-05-09T19:44:02.316Z,1.24
2023-05-09T19:46:32.893Z,1.20
2023-05-09T19:49:03.477Z,1.17
2023-05-09T19:51:35.529Z,1.22
2023-05-09T19:54:06.053Z,1.31
2023-05-09T19:56:36.643Z,1.29
2023-05-09T19:59:07.170Z,1.40
2023-05-09T20:01:37.778Z,1.27
2023-05-09T20:04:08.764Z,1.11
2023-05-09T20:06:40.900Z,1.13
2023-05-09T20:09:11.527Z,1.26
2023-05-09T20:11:41.982Z,1.31
2023-05-09T20:14:12.486Z,1.29
2023-05-09T20:16:43.059Z,1.29
2023-05-09T20:19:14.483Z,1.27
2023-05-09T20:21:46.520Z,1.31
2023-05-09T20:24:17.037Z,1.28
2023-05-09T20:26:47.495Z,1.23
2023-05-09T20:29:17.968Z,1.33
2023-05-09T20:31:48.515Z,1.41
2023-05-09T20:34:21.458Z,1.36
2023-05-09T20:36:55.734Z,1.30
2023-05-09T20:39:27.514Z,1.21
2023-05-09T20:42:02.875Z,1.25
2023-05-09T20:44:33.362Z,1.24
2023-05-09T20:47:03.830Z,1.18
2023-05-09T20:49:34.211Z,1.19
2023-05-09T20:52:06.563Z,1.21
2023-05-09T20:54:36.961Z,1.17
2023-05-09T20:57:32.796Z,1.06
2023-05-09T21:00:03.275Z,1.12
2023-05-09T21:02:33.735Z,1.13
2023-05-09T21:05:04.601Z,1.13
2023-05-09T21:07:36.644Z,1.13
2023-05-09T21:10:07.550Z,1.13
2023-05-09T21:12:38.050Z,1.16
2023-05-09T21:15:09.673Z,1.15
2023-05-09T21:17:40.137Z,1.17
2023-05-09T21:20:11.773Z,1.13
2023-05-09T21:22:43.934Z,1.12
2023-05-09T21:25:14.847Z,1.13
2023-05-09T21:27:45.375Z,1.04
2023-05-09T21:30:15.953Z,1.14
2023-05-09T21:32:46.607Z,1.02
2023-05-09T21:35:16.986Z,1.07
2023-05-09T21:37:51.234Z,1.10
2023-05-09T21:40:21.989Z,1.14
2023-05-09T21:42:52.474Z,1.10
2023-05-09T21:45:22.929Z,0.97
2023-05-09T21:47:53.452Z,1.05
2023-05-09T21:50:24.200Z,1.07
2023-05-09T21:52:56.990Z,1.11
2023-05-09T21:55:27.577Z,1.11
2023-05-09T21:57:58.160Z,1.15
2023-05-09T22:00:28.636Z,1.12
2023-05-09T22:02:59.450Z,1.14
2023-05-09T22:05:29.876Z,1.16
2023-05-09T22:08:01.799Z,1.18
2023-05-09T22:10:32.242Z,1.18
2023-05-09T22:13:02.678Z,1.17
2023-05-09T22:15:33.286Z,1.23
2023-05-09T22:18:03.752Z,1.19
2023-05-09T22:20:34.266Z,1.21
2023-05-09T22:23:06.287Z,1.24
2023-05-09T22:25:36.705Z,1.32
2023-05-09T22:28:07.518Z,1.39
2023-05-09T22:30:38.551Z,1.35
2023-05-09T22:33:10.532Z,1.38
2023-05-09T22:35:41.718Z,1.28
2023-05-09T22:38:13.837Z,1.40
2023-05-09T22:40:44.393Z,1.40
2023-05-09T22:43:17.690Z,1.39
2023-05-09T22:45:48.373Z,1.01
2023-05-09T22:48:18.943Z,1.34
2023-05-09T22:50:49.644Z,1.37
2023-05-09T22:53:21.813Z,1.27
2023-05-09T22:55:53.368Z,0.67
2023-05-09T22:58:23.919Z,1.21
2023-05-09T23:00:54.365Z,1.27
2023-05-09T23:03:24.962Z,1.24
2023-05-09T23:05:55.699Z,1.19
2023-05-09T23:08:27.792Z,1.20
2023-05-09T23:10:58.200Z,1.25
2023-05-09T23:13:29.112Z,1.32
2023-05-09T23:15:59.697Z,1.35
2023-05-09T23:18:30.207Z,1.45
2023-05-09T23:21:00.705Z,1.45
2023-05-09T23:23:32.733Z,1.42
2023-05-09T23:26:03.118Z,1.56
2023-05-09T23:28:33.623Z,1.63
2023-05-09T23:31:04.251Z,1.68
2023-05-09T23:33:34.823Z,1.81
2023-05-09T23:36:05.762Z,1.93
2023-05-09T23:38:37.946Z,1.98
2023-05-09T23:41:08.412Z,2.06
2023-05-09T23:43:38.814Z,2.09
2023-05-09T23:46:09.330Z,2.14
2023-05-09T23:48:39.913Z,2.14
2023-05-09T23:51:10.338Z,2.11
2023-05-09T23:53:43.943Z,2.21
2023-05-09T23:56:14.287Z,2.40
2023-05-09T23:58:44.734Z,2.51
